Time;durP1;ratioP1;P1;durP2;ratioP2;P2;SDS_P1;SDS_P2;PMS_P1;PMS_P2;Temp;Humidity;BMP_temperature;BMP_pressure;BME280_temperature;BME280_humidity;BME280_pressure;Samples;Min_cycle;Max_cycle;Signal;HPM_P1;HPM_P2
2023/10/10 00:01:03;;;;;;;5.55;2.90;;;19.60;69.90;;;;;;5040692;28;20446;-50
2023/10/10 00:03:31;;;;;;;7.88;2.70;;;19.70;70.10;;;;;;5042121;28;20037;-47
2023/10/10 00:05:58;;;;;;;10.38;2.53;;;19.70;69.90;;;;;;5040815;28;20607;-50
2023/10/10 00:08:34;;;;;;;5.22;2.75;;;19.70;70.10;;;;;;5041055;28;20401;-50
2023/10/10 00:11:00;;;;;;;6.00;2.40;;;19.70;69.90;;;;;;5041631;28;20112;-48
2023/10/10 00:13:26;;;;;;;3.30;2.35;;;19.70;70.00;;;;;;5034035;28;20056;-50
2023/10/10 00:15:55;;;;;;;4.45;2.38;;;19.70;69.90;;;;;;5038290;28;20529;-47
2023/10/10 00:18:22;;;;;;;5.75;2.50;;;19.70;69.80;;;;;;5036539;28;20091;-48
2023/10/10 00:21:07;;;;;;;5.38;2.70;;;19.70;70.10;;;;;;5033890;28;20037;-47
2023/10/10 00:23:47;;;;;;;7.80;2.38;;;19.70;69.80;;;;;;5038663;28;20040;-50
2023/10/10 00:26:14;;;;;;;6.32;2.33;;;19.60;69.80;;;;;;5040830;28;20039;-50
2023/10/10 00:28:41;;;;;;;5.35;2.42;;;19.70;70.00;;;;;;5047196;28;20036;-48
2023/10/10 00:31:13;;;;;;;3.30;2.20;;;19.70;69.90;;;;;;5040276;28;20033;-50
2023/10/10 00:33:39;;;;;;;5.35;2.65;;;19.70;69.90;;;;;;5042454;28;20458;-46
2023/10/10 00:36:21;;;;;;;3.47;2.38;;;19.70;69.90;;;;;;5042956;28;20061;-48
2023/10/10 00:38:50;;;;;;;3.40;2.22;;;19.60;70.00;;;;;;5040265;28;20052;-51
2023/10/10 00:41:16;;;;;;;7.35;2.20;;;19.70;69.90;;;;;;5040847;28;20463;-46
2023/10/10 00:43:44;;;;;;;3.30;2.20;;;19.70;69.90;;;;;;5041594;28;20121;-47
2023/10/10 00:46:11;;;;;;;3.55;3.00;;;19.60;70.00;;;;;;5038790;28;20446;-47
2023/10/10 00:48:38;;;;;;;2.97;2.10;;;19.70;69.80;;;;;;5037662;28;20129;-46
2023/10/10 00:51:05;;;;;;;3.33;2.70;;;19.70;69.90;;;;;;5040849;28;20075;-49
2023/10/10 00:53:35;;;;;;;3.75;2.65;;;19.70;70.10;;;;;;5040647;28;20584;-49
2023/10/10 00:56:05;;;;;;;2.80;2.40;;;19.70;69.80;;;;;;5042668;28;20025;-47
2023/10/10 00:58:38;;;;;;;5.38;2.47;;;19.70;69.90;;;;;;5043692;28;20478;-49
2023/10/10 01:01:10;;;;;;;4.38;2.22;;;19.70;70.00;;;;;;5040812;28;20033;-47
2023/10/10 01:03:42;;;;;;;2.38;2.17;;;19.70;70.10;;;;;;5042086;28;20497;-46
2023/10/10 01:06:26;;;;;;;2.53;2.17;;;19.70;70.00;;;;;;5041618;28;20128;-46
2023/10/10 01:09:39;;;;;;;3.42;2.30;;;19.70;70.00;;;;;;5040245;28;20236;-47
2023/10/10 01:11:43;;;;;;;7.53;2.90;;;19.70;69.80;;;;;;5035151;28;20044;-49
2023/10/10 01:14:09;;;;;;;6.75;2.70;;;19.70;70.10;;;;;;5038327;28;20517;-48
2023/10/10 01:16:35;;;;;;;3.78;2.75;;;19.70;70.20;;;;;;5037259;28;20827;-48
2023/10/10 01:19:01;;;;;;;7.53;3.33;;;19.70;70.00;;;;;;5036499;28;20055;-51
2023/10/10 01:21:30;;;;;;;5.22;2.35;;;19.70;70.10;;;;;;5041116;28;20036;-47
2023/10/10 01:24:06;;;;;;;8.10;3.15;;;19.70;70.00;;;;;;5043041;28;20040;-48
2023/10/10 01:26:38;;;;;;;4.95;2.55;;;19.70;70.20;;;;;;5040724;28;20494;-49
2023/10/10 01:29:21;;;;;;;5.82;2.60;;;19.70;70.10;;;;;;5040717;28;20052;-50
2023/10/10 01:31:48;;;;;;;8.25;2.90;;;19.70;69.90;;;;;;5040543;28;20771;-52
2023/10/10 01:34:30;;;;;;;5.18;2.50;;;19.70;69.90;;;;;;5042765;28;20040;-49
2023/10/10 01:37:07;;;;;;;6.00;2.80;;;19.70;70.00;;;;;;5040660;28;20025;-46
2023/10/10 01:39:45;;;;;;;6.15;2.40;;;19.70;70.00;;;;;;5039793;28;20101;-45
2023/10/10 01:42:11;;;;;;;4.78;2.13;;;19.70;69.90;;;;;;5039187;28;20398;-45
2023/10/10 01:44:37;;;;;;;3.63;3.20;;;19.70;69.90;;;;;;5033768;28;20128;-45
2023/10/10 01:47:03;;;;;;;3.35;2.50;;;19.70;70.00;;;;;;5034406;28;20116;-46
2023/10/10 01:49:31;;;;;;;12.48;3.17;;;19.70;70.00;;;;;;5036091;28;20090;-47
2023/10/10 01:52:00;;;;;;;5.50;2.30;;;19.70;69.90;;;;;;5041018;28;20021;-47
2023/10/10 01:54:40;;;;;;;12.77;2.80;;;19.70;70.10;;;;;;5041119;28;20513;-57
2023/10/10 01:57:20;;;;;;;7.00;2.90;;;19.80;70.50;;;;;;5041825;28;20055;-57
2023/10/10 01:59:46;;;;;;;7.45;2.90;;;19.70;70.10;;;;;;5041574;28;20063;-50
2023/10/10 02:02:16;;;;;;;12.48;3.00;;;19.70;70.30;;;;;;5042227;28;20079;-56
2023/10/10 02:04:45;;;;;;;5.88;3.38;;;19.70;70.30;;;;;;5040735;28;20537;-50
2023/10/10 02:07:23;;;;;;;12.25;4.00;;;19.70;70.40;;;;;;5040856;28;20086;-54
2023/10/10 02:12:38;;;;;;;9.07;2.60;;;19.70;70.60;;;;;;5031548;28;20095;-52
2023/10/10 02:15:11;;;;;;;14.30;3.45;;;19.70;70.90;;;;;;5039093;28;20060;-51
2023/10/10 02:17:39;;;;;;;7.88;3.30;;;19.70;70.80;;;;;;5052695;28;20093;-50
2023/10/10 02:20:33;;;;;;;14.07;3.28;;;19.70;70.80;;;;;;5039612;28;20032;-55
2023/10/10 02:28:20;;;;;;;7.63;2.90;;;19.60;71.00;;;;;;5039672;28;20021;-52
2023/10/10 02:30:52;;;;;;;12.35;3.50;;;19.60;71.00;;;;;;5038442;28;20490;-57
2023/10/10 02:38:31;;;;;;;10.50;3.45;;;19.60;70.90;;;;;;5037185;28;20512;-52
2023/10/10 02:46:35;;;;;;;5.70;2.63;;;19.60;70.90;;;;;;5034540;28;20033;-53
2023/10/10 02:49:09;;;;;;;9.83;3.27;;;19.60;70.80;;;;;;5038001;28;20041;-52
2023/10/10 02:51:36;;;;;;;8.10;3.15;;;19.60;70.80;;;;;;5039066;28;20048;-51
2023/10/10 02:54:10;;;;;;;5.05;2.20;;;19.60;70.90;;;;;;5039903;28;20029;-52
2023/10/10 02:56:43;;;;;;;5.18;3.47;;;19.60;70.80;;;;;;5036885;28;20040;-54
2023/10/10 02:59:10;;;;;;;5.18;2.95;;;19.60;70.90;;;;;;5039757;28;20530;-50
2023/10/10 03:04:22;;;;;;;9.82;3.05;;;19.60;70.90;;;;;;5037494;28;20110;-53
2023/10/10 03:06:48;;;;;;;4.28;2.55;;;19.60;70.80;;;;;;5039800;28;20044;-55
2023/10/10 03:12:05;;;;;;;5.30;2.90;;;19.60;70.90;;;;;;5041402;28;20036;-49
2023/10/10 03:14:33;;;;;;;6.82;2.70;;;19.60;70.70;;;;;;5038710;28;20091;-50
2023/10/10 03:17:05;;;;;;;26.60;4.40;;;19.60;70.90;;;;;;5043111;28;20033;-54
2023/10/10 03:19:41;;;;;;;10.73;3.10;;;19.60;71.10;;;;;;5042496;28;20542;-52
2023/10/10 03:25:04;;;;;;;8.35;3.33;;;19.70;71.10;;;;;;5023267;28;20033;-52
2023/10/10 03:30:34;;;;;;;6.43;3.40;;;19.70;70.80;;;;;;5028432;28;20036;-52
2023/10/10 03:33:08;;;;;;;5.47;3.22;;;19.70;71.10;;;;;;5020594;28;20038;-50
2023/10/10 03:36:00;;;;;;;6.57;3.05;;;19.60;71.00;;;;;;5022050;28;20033;-54
2023/10/10 03:38:44;;;;;;;4.32;3.08;;;19.60;71.10;;;;;;5020081;28;20046;-55
2023/10/10 05:25:13;;;;;;;3.47;2.88;;;19.60;70.90;;;;;;5020152;28;20059;-52
2023/10/10 05:27:42;;;;;;;6.47;2.95;;;19.60;70.90;;;;;;5016561;28;20486;-53
2023/10/10 05:30:23;;;;;;;5.07;3.30;;;19.60;70.80;;;;;;5017263;28;20030;-53
2023/10/10 05:33:00;;;;;;;4.68;3.00;;;19.60;70.70;;;;;;5020627;28;20102;-52
2023/10/10 05:35:35;;;;;;;5.70;3.42;;;19.70;70.80;;;;;;5025176;28;20085;-55
2023/10/10 05:38:00;;;;;;;6.97;4.53;;;19.60;70.90;;;;;;5020099;28;20029;-53
2023/10/10 05:40:27;;;;;;;5.90;3.80;;;19.50;71.00;;;;;;5018717;28;20033;-54
2023/10/10 05:42:53;;;;;;;4.35;3.03;;;19.60;70.90;;;;;;5024603;28;20022;-51
2023/10/10 05:45:19;;;;;;;4.35;3.47;;;19.60;70.80;;;;;;5019808;28;20480;-54
2023/10/10 05:47:45;;;;;;;4.72;3.15;;;19.60;70.70;;;;;;5031134;28;20021;-50
2023/10/10 05:50:10;;;;;;;4.60;3.13;;;19.60;70.70;;;;;;5036788;28;20033;-56
2023/10/10 05:52:39;;;;;;;4.57;3.13;;;19.60;70.70;;;;;;5021810;28;20525;-51
2023/10/10 05:55:06;;;;;;;5.50;3.30;;;19.60;70.60;;;;;;5018283;28;20032;-48
2023/10/10 05:57:33;;;;;;;9.90;4.15;;;19.60;70.70;;;;;;5018378;28;20029;-48
2023/10/10 05:59:59;;;;;;;5.25;3.00;;;19.70;71.20;;;;;;5024240;28;20041;-47
2023/10/10 06:02:27;;;;;;;7.68;3.47;;;19.70;70.40;;;;;;5017672;28;20044;-48
2023/10/10 06:04:53;;;;;;;4.35;3.38;;;19.70;70.20;;;;;;5020187;28;20033;-47
2023/10/10 06:07:20;;;;;;;8.50;3.40;;;19.70;70.10;;;;;;5019115;28;20160;-49
2023/10/10 06:09:48;;;;;;;3.78;3.17;;;19.70;70.00;;;;;;5031661;28;20103;-47
2023/10/10 06:12:15;;;;;;;5.15;4.25;;;19.70;70.00;;;;;;5017000;28;20033;-48
2023/10/10 06:14:42;;;;;;;4.72;3.53;;;19.60;70.00;;;;;;5019715;28;20034;-46
2023/10/10 06:17:08;;;;;;;6.25;4.20;;;19.60;70.00;;;;;;5015439;28;20029;-46
2023/10/10 06:19:34;;;;;;;5.90;3.72;;;19.60;69.90;;;;;;5012250;28;20117;-50
2023/10/10 06:22:02;;;;;;;5.65;4.18;;;19.60;70.00;;;;;;5015057;28;20116;-48
2023/10/10 06:24:28;;;;;;;4.03;3.30;;;19.60;69.90;;;;;;5029815;28;20034;-54
2023/10/10 06:27:00;;;;;;;6.07;3.72;;;19.60;69.90;;;;;;5037624;28;20029;-50
2023/10/10 06:29:29;;;;;;;4.90;3.45;;;19.60;69.90;;;;;;5031644;28;20037;-50
2023/10/10 06:31:56;;;;;;;3.67;3.10;;;19.60;69.90;;;;;;5036993;28;20037;-52
2023/10/10 06:34:23;;;;;;;5.43;3.60;;;19.60;69.80;;;;;;5034037;28;20033;-50
2023/10/10 06:36:49;;;;;;;5.22;3.90;;;19.60;69.90;;;;;;5033481;28;20060;-52
2023/10/10 06:41:43;;;;;;;4.35;3.28;;;19.50;69.80;;;;;;5037663;28;20033;-50
2023/10/10 06:44:15;;;;;;;5.55;4.47;;;19.50;69.90;;;;;;5035726;28;20033;-48
2023/10/10 06:46:41;;;;;;;4.65;3.20;;;19.50;69.70;;;;;;5036949;28;20040;-46
2023/10/10 06:49:11;;;;;;;4.85;3.53;;;19.50;69.80;;;;;;5051278;28;20033;-49
2023/10/10 06:51:40;;;;;;;5.95;3.92;;;19.50;69.90;;;;;;5036093;28;20048;-49
2023/10/10 06:54:19;;;;;;;7.07;4.28;;;19.50;70.00;;;;;;5038973;28;20147;-46
2023/10/10 06:56:53;;;;;;;6.75;4.28;;;19.50;70.00;;;;;;5037617;28;20037;-48
2023/10/10 06:59:25;;;;;;;5.97;4.28;;;19.50;70.00;;;;;;5035848;28;20044;-50
2023/10/10 07:01:50;;;;;;;5.28;4.00;;;19.50;69.90;;;;;;5036488;28;20033;-50
2023/10/10 07:04:16;;;;;;;6.78;4.50;;;19.50;70.00;;;;;;5051540;28;20047;-46
2023/10/10 07:06:44;;;;;;;5.97;4.20;;;19.50;70.10;;;;;;5035716;28;20033;-46
2023/10/10 07:09:29;;;;;;;7.43;4.30;;;19.50;70.00;;;;;;5036288;28;20566;-46
2023/10/10 07:12:11;;;;;;;6.68;4.35;;;19.50;70.00;;;;;;5031801;28;20028;-48
2023/10/10 07:14:43;;;;;;;5.22;4.20;;;19.50;69.90;;;;;;5032537;28;20117;-46
2023/10/10 07:17:12;;;;;;;5.60;4.72;;;19.50;69.90;;;;;;5037230;28;20164;-51
2023/10/10 07:22:26;;;;;;;8.07;5.43;;;19.50;70.10;;;;;;5037980;28;20029;-49
2023/10/10 07:25:07;;;;;;;10.50;6.10;;;19.40;69.90;;;;;;5039413;28;20029;-49
2023/10/10 07:27:41;;;;;;;6.82;4.75;;;19.50;70.50;;;;;;5035781;28;20430;-49
2023/10/10 07:30:18;;;;;;;6.78;4.88;;;19.50;69.80;;;;;;5036566;28;20104;-47
2023/10/10 07:32:44;;;;;;;5.18;4.65;;;19.50;69.80;;;;;;5038028;28;20100;-46
2023/10/10 07:35:14;;;;;;;6.05;4.43;;;19.40;69.70;;;;;;5036417;28;20064;-47
2023/10/10 07:37:43;;;;;;;5.18;3.92;;;19.40;69.60;;;;;;5037371;28;20094;-51
2023/10/10 07:42:37;;;;;;;6.18;4.40;;;19.40;69.70;;;;;;5030328;28;20336;-51
2023/10/10 07:45:13;;;;;;;6.53;4.18;;;19.40;70.10;;;;;;5028261;28;20022;-48
2023/10/10 07:50:37;;;;;;;6.07;4.68;;;19.40;69.80;;;;;;5008464;28;20549;-49
2023/10/10 07:53:05;;;;;;;6.35;4.93;;;19.40;69.70;;;;;;5022925;28;20034;-46
2023/10/10 07:55:50;;;;;;;6.05;4.55;;;19.40;69.60;;;;;;5020126;28;20372;-47
2023/10/10 07:58:16;;;;;;;5.97;5.00;;;19.40;69.50;;;;;;5021782;28;20454;-49
2023/10/10 08:00:44;;;;;;;7.47;4.70;;;19.50;69.60;;;;;;5017734;28;20029;-47
2023/10/10 08:03:19;;;;;;;6.38;4.07;;;19.50;69.20;;;;;;5016257;28;20117;-52
2023/10/10 08:05:47;;;;;;;4.87;4.13;;;19.50;69.40;;;;;;5019204;28;20510;-49
2023/10/10 08:08:15;;;;;;;6.78;3.75;;;19.50;69.30;;;;;;5024461;28;20116;-46
2023/10/10 08:10:43;;;;;;;6.55;4.43;;;19.50;69.30;;;;;;5015226;28;20117;-49
2023/10/10 08:13:11;;;;;;;6.82;4.78;;;19.50;69.10;;;;;;5019631;28;20078;-49
2023/10/10 08:15:56;;;;;;;6.95;4.47;;;19.50;69.10;;;;;;5012950;28;20103;-47
2023/10/10 08:21:13;;;;;;;5.45;4.07;;;19.50;69.30;;;;;;5019097;28;20075;-46
2023/10/10 08:23:42;;;;;;;8.23;4.90;;;19.50;69.00;;;;;;5018043;28;20082;-49
2023/10/10 08:26:18;;;;;;;6.50;4.47;;;19.50;69.10;;;;;;5022802;28;20037;-48
2023/10/10 08:28:48;;;;;;;5.82;4.53;;;19.50;68.80;;;;;;5035902;28;20123;-46
2023/10/10 08:31:15;;;;;;;8.45;4.80;;;19.50;69.30;;;;;;5040217;28;20106;-49
2023/10/10 08:33:45;;;;;;;8.32;5.57;;;19.50;69.40;;;;;;5037468;28;20049;-51
2023/10/10 08:36:12;;;;;;;8.10;4.78;;;19.50;69.20;;;;;;5041596;28;20060;-46
2023/10/10 08:38:42;;;;;;;9.30;4.13;;;19.50;69.10;;;;;;5040276;28;20116;-46
2023/10/10 08:41:08;;;;;;;7.85;4.78;;;19.50;70.30;;;;;;5037572;28;20033;-51
2023/10/10 08:43:39;;;;;;;9.45;4.80;;;19.50;69.30;;;;;;5036523;28;20394;-47
2023/10/10 08:46:09;;;;;;;8.15;5.28;;;19.50;69.30;;;;;;5041108;28;20102;-45
2023/10/10 08:48:36;;;;;;;9.32;4.90;;;19.50;70.20;;;;;;5034417;28;20348;-47
2023/10/10 08:51:04;;;;;;;9.10;5.38;;;19.50;69.70;;;;;;5029728;28;20380;-46
2023/10/10 08:53:35;;;;;;;8.32;5.57;;;19.50;69.40;;;;;;5020275;28;20445;-49
2023/10/10 08:56:02;;;;;;;7.20;5.03;;;19.50;69.60;;;;;;5019314;28;20060;-45
2023/10/10 08:58:31;;;;;;;6.07;4.97;;;19.60;69.00;;;;;;5020784;28;20103;-55
2023/10/10 09:00:58;;;;;;;7.07;4.85;;;19.50;69.10;;;;;;5027844;28;20517;-49
2023/10/10 09:03:26;;;;;;;9.20;4.90;;;19.60;69.00;;;;;;5026467;28;20559;-51
2023/10/10 09:05:52;;;;;;;9.63;4.63;;;19.60;69.00;;;;;;5014202;28;20256;-50
2023/10/10 09:08:26;;;;;;;6.72;5.15;;;19.60;70.10;;;;;;5018361;28;20143;-50
2023/10/10 09:10:56;;;;;;;8.00;5.57;;;19.60;68.90;;;;;;5023386;28;20034;-47
2023/10/10 09:13:25;;;;;;;5.68;4.60;;;19.60;69.40;;;;;;5016750;28;20041;-46
2023/10/10 09:15:55;;;;;;;13.88;5.22;;;19.60;69.20;;;;;;5018701;28;20920;-49
2023/10/10 09:18:22;;;;;;;7.72;5.20;;;19.60;68.80;;;;;;5021502;28;20045;-47
2023/10/10 09:20:49;;;;;;;7.68;5.18;;;19.60;68.80;;;;;;5020286;28;20045;-48
2023/10/10 09:23:32;;;;;;;4.80;4.25;;;19.60;68.90;;;;;;5021712;28;20052;-48
2023/10/10 09:26:36;;;;;;;8.07;5.10;;;19.60;69.10;;;;;;5020857;28;20120;-47
2023/10/10 09:29:03;;;;;;;6.88;4.47;;;19.50;69.10;;;;;;5021673;28;20064;-48
2023/10/10 09:31:31;;;;;;;8.55;4.32;;;19.60;68.90;;;;;;5018146;28;20056;-47
2023/10/10 09:34:02;;;;;;;10.75;6.78;;;19.60;69.00;;;;;;5018845;28;20029;-48
2023/10/10 09:36:28;;;;;;;7.63;5.03;;;19.60;69.30;;;;;;5017965;28;20046;-48
2023/10/10 09:39:08;;;;;;;7.63;5.35;;;19.60;68.70;;;;;;5017938;28;20061;-51
2023/10/10 10:09:09;;;;;;;8.38;4.47;;;19.60;69.00;;;;;;5026643;28;20075;-51
2023/10/10 10:11:59;;;;;;;8.52;5.32;;;19.60;69.10;;;;;;5015825;28;20444;-50
2023/10/10 10:14:55;;;;;;;6.05;4.40;;;19.60;69.30;;;;;;5016281;28;20034;-48
2023/10/10 10:17:47;;;;;;;5.43;4.28;;;19.60;69.10;;;;;;5014051;28;20618;-50
2023/10/10 10:20:22;;;;;;;6.50;4.18;;;19.70;68.70;;;;;;5028893;28;20053;-46
2023/10/10 10:22:59;;;;;;;7.40;5.70;;;19.70;69.00;;;;;;5000701;28;20038;-51
2023/10/10 10:25:28;;;;;;;5.93;4.38;;;19.70;69.20;;;;;;5014094;28;20049;-48
2023/10/10 10:28:10;;;;;;;10.32;4.90;;;19.70;69.20;;;;;;5010619;28;20033;-48
2023/10/10 10:30:50;;;;;;;6.18;4.40;;;19.70;69.10;;;;;;5011246;28;20093;-49
2023/10/10 10:33:19;;;;;;;6.35;4.65;;;19.70;69.30;;;;;;5031055;28;20058;-47
2023/10/10 10:35:48;;;;;;;6.95;4.10;;;19.70;69.10;;;;;;5010160;28;20050;-49
2023/10/10 10:38:15;;;;;;;7.60;4.75;;;19.70;69.40;;;;;;5022905;28;20034;-50
2023/10/10 10:40:43;;;;;;;5.80;3.97;;;19.60;69.30;;;;;;5013875;28;20037;-48
2023/10/10 10:43:15;;;;;;;10.32;5.47;;;19.70;69.30;;;;;;5017309;28;20441;-49
2023/10/10 10:45:45;;;;;;;7.18;4.25;;;19.70;69.70;;;;;;5015350;28;20128;-47
2023/10/10 10:48:29;;;;;;;6.43;4.90;;;19.70;69.70;;;;;;5014604;28;20150;-48
2023/10/10 10:51:26;;;;;;;8.52;4.85;;;19.70;69.70;;;;;;5010678;28;20651;-47
2023/10/10 10:53:58;;;;;;;7.93;5.22;;;19.60;70.10;;;;;;5020579;28;20083;-48
2023/10/10 10:56:37;;;;;;;9.25;7.50;;;19.70;70.10;;;;;;5012959;28;20034;-51
2023/10/10 10:59:12;;;;;;;8.35;6.15;;;19.60;70.30;;;;;;5009732;28;20033;-47
2023/10/10 11:01:53;;;;;;;6.60;5.90;;;19.70;70.50;;;;;;5006962;28;20041;-46
2023/10/10 11:04:39;;;;;;;6.05;5.45;;;19.70;70.40;;;;;;5014670;28;20041;-49
2023/10/10 11:07:08;;;;;;;;;;;19.70;70.50;;;;;;5015001;28;20026;-48
2023/10/10 11:09:36;;;;;;;6.05;5.00;;;19.70;70.50;;;;;;5032592;28;19913;-50
2023/10/10 11:12:07;;;;;;;16.42;8.73;;;19.70;70.20;;;;;;5019274;28;20117;-49
2023/10/10 11:14:35;;;;;;;12.88;8.15;;;19.70;71.00;;;;;;5017431;28;20025;-46
2023/10/10 11:17:01;;;;;;;22.83;12.75;;;19.60;70.60;;;;;;5020039;28;20343;-49
2023/10/10 11:21:54;;;;;;;53.05;33.22;;;19.70;71.20;;;;;;5011561;28;20057;-47
2023/10/10 11:24:25;;;;;;;64.00;37.90;;;19.60;70.80;;;;;;5012508;28;20061;-46
2023/10/10 11:27:07;;;;;;;49.33;30.60;;;19.70;70.70;;;;;;5017052;28;20033;-51
2023/10/10 11:29:45;;;;;;;62.90;36.95;;;19.70;70.80;;;;;;5006716;28;20036;-53
2023/10/10 11:32:23;;;;;;;66.20;40.20;;;19.70;70.40;;;;;;5024117;28;20123;-48
2023/10/10 11:34:50;;;;;;;65.85;41.67;;;19.70;70.20;;;;;;5017586;28;20061;-50
2023/10/10 11:37:21;;;;;;;62.65;36.22;;;19.70;70.50;;;;;;5014319;28;20096;-46
2023/10/10 11:39:57;;;;;;;63.90;38.05;;;19.70;70.60;;;;;;5015766;28;20037;-48
2023/10/10 11:42:33;;;;;;;59.20;38.38;;;19.70;70.30;;;;;;5016435;28;20041;-51
2023/10/10 11:45:07;;;;;;;51.42;34.50;;;19.70;70.10;;;;;;5018613;28;20143;-47
2023/10/10 11:47:42;;;;;;;66.20;41.70;;;19.70;69.70;;;;;;5018758;28;20056;-50
2023/10/10 11:50:09;;;;;;;;;;;19.70;69.60;;;;;;5016260;28;20038;-53
2023/10/10 11:52:48;;;;;;;59.17;38.67;;;19.70;69.80;;;;;;5013397;28;19928;-52
2023/10/10 11:55:17;;;;;;;57.13;40.17;;;19.70;69.80;;;;;;5015178;28;20037;-48
2023/10/10 11:57:44;;;;;;;60.33;40.40;;;19.70;70.00;;;;;;5007478;28;20441;-51
2023/10/10 12:00:11;;;;;;;55.10;38.40;;;19.70;69.60;;;;;;5007591;28;20545;-54
2023/10/10 12:02:40;;;;;;;62.72;40.90;;;19.80;70.00;;;;;;5030657;28;20072;-48
2023/10/10 12:05:35;;;;;;;52.63;38.13;;;19.70;69.80;;;;;;5016827;28;20514;-49
2023/10/10 12:07:53;;;;;;;54.13;38.75;;;19.80;69.50;;;;;;5014626;28;20061;-52
2023/10/10 12:10:24;;;;;;;54.53;38.42;;;19.80;69.80;;;;;;5018724;28;20030;-50
2023/10/10 12:12:53;;;;;;;55.15;37.50;;;19.80;69.70;;;;;;5017492;28;20152;-48
2023/10/10 12:15:22;;;;;;;47.67;33.20;;;19.80;69.50;;;;;;5017385;28;20044;-51
2023/10/10 12:17:48;;;;;;;54.10;35.90;;;19.80;70.40;;;;;;5014500;28;20030;-51
2023/10/10 12:20:16;;;;;;;44.10;32.03;;;19.70;70.20;;;;;;5016164;28;20107;-50
2023/10/10 12:22:41;;;;;;;43.78;33.08;;;19.70;70.30;;;;;;5014452;28;20033;-52
2023/10/10 12:25:13;;;;;;;42.40;27.40;;;19.80;70.10;;;;;;5017572;28;20030;-48
2023/10/10 12:27:48;;;;;;;42.08;28.67;;;19.80;70.40;;;;;;5018590;28;20037;-50
2023/10/10 12:30:18;;;;;;;38.40;27.92;;;19.80;70.00;;;;;;5018617;28;20726;-47
2023/10/10 12:32:48;;;;;;;39.60;25.70;;;19.80;70.40;;;;;;5015479;28;20034;-49
2023/10/10 12:35:14;;;;;;;38.60;25.42;;;19.80;70.00;;;;;;5017173;28;20037;-47
2023/10/10 12:37:44;;;;;;;32.83;23.27;;;19.80;69.70;;;;;;5014061;28;20037;-48
2023/10/10 12:40:11;;;;;;;32.75;22.05;;;19.80;70.00;;;;;;5014664;28;20499;-46
2023/10/10 12:42:36;;;;;;;29.88;21.00;;;19.80;70.10;;;;;;5017873;28;20418;-51
2023/10/10 12:45:03;;;;;;;31.42;20.52;;;19.70;69.70;;;;;;5017420;28;20029;-47
2023/10/10 12:47:31;;;;;;;27.58;20.05;;;19.80;69.70;;;;;;5015508;28;20155;-47
2023/10/10 12:50:00;;;;;;;26.10;18.40;;;19.80;69.70;;;;;;5016152;28;20116;-47
2023/10/10 12:52:34;;;;;;;23.80;17.52;;;19.80;70.20;;;;;;5014849;28;20029;-47
2023/10/10 12:55:09;;;;;;;23.40;17.50;;;19.80;69.70;;;;;;5012794;28;20311;-48
2023/10/10 12:57:36;;;;;;;20.67;15.50;;;19.80;69.60;;;;;;5008162;28;20030;-48
2023/10/10 13:00:23;;;;;;;20.83;14.50;;;19.80;69.70;;;;;;5022007;28;20044;-47
2023/10/10 13:02:48;;;;;;;19.83;14.13;;;19.80;69.60;;;;;;5015297;28;20042;-50
2023/10/10 13:05:16;;;;;;;16.50;13.70;;;19.80;69.60;;;;;;5014343;28;20056;-47
2023/10/10 13:07:43;;;;;;;17.77;13.07;;;19.80;69.60;;;;;;5020092;28;20030;-49
2023/10/10 13:10:10;;;;;;;14.05;12.13;;;19.80;69.70;;;;;;5020162;28;20029;-49
2023/10/10 13:12:46;;;;;;;16.15;12.02;;;19.80;69.60;;;;;;5017648;28;20108;-48
2023/10/10 13:15:18;;;;;;;15.70;11.13;;;19.80;69.40;;;;;;5016357;28;20037;-48
2023/10/10 13:17:53;;;;;;;15.63;11.82;;;19.80;69.30;;;;;;5015327;28;20034;-47
2023/10/10 13:20:19;;;;;;;13.85;10.85;;;19.80;69.40;;;;;;5017871;28;20064;-48
2023/10/10 13:22:50;;;;;;;14.90;10.73;;;19.80;69.30;;;;;;5014142;28;20026;-49
2023/10/10 13:25:19;;;;;;;12.10;9.98;;;19.80;69.30;;;;;;5015705;28;20125;-48
2023/10/10 13:27:52;;;;;;;13.88;10.13;;;19.80;69.30;;;;;;5010920;28;20037;-48
2023/10/10 13:30:18;;;;;;;12.65;9.23;;;19.80;69.20;;;;;;5016663;28;20206;-48
2023/10/10 13:32:43;;;;;;;12.23;9.38;;;19.80;69.50;;;;;;5014521;28;20514;-52
2023/10/10 13:35:10;;;;;;;12.55;9.75;;;19.80;69.40;;;;;;5013439;28;20033;-49
2023/10/10 13:37:40;;;;;;;12.98;9.43;;;19.80;69.50;;;;;;5018681;28;20030;-53
2023/10/10 13:40:07;;;;;;;15.38;9.20;;;19.80;69.80;;;;;;5018713;28;20030;-49
2023/10/10 13:42:32;;;;;;;12.13;9.45;;;19.80;69.40;;;;;;5016113;28;20041;-49
2023/10/10 13:45:10;;;;;;;13.45;8.40;;;19.80;69.60;;;;;;5016613;28;20932;-48
2023/10/10 13:47:39;;;;;;;10.07;8.45;;;19.80;69.50;;;;;;5015912;28;20053;-48
2023/10/10 13:50:40;;;;;;;11.07;8.82;;;19.80;69.50;;;;;;5014388;28;20045;-49
2023/10/10 13:52:59;;;;;;;11.60;8.05;;;19.80;69.50;;;;;;5007553;28;20061;-50
2023/10/10 13:55:29;;;;;;;10.45;8.13;;;19.80;69.70;;;;;;5006961;28;20491;-47
2023/10/10 13:57:55;;;;;;;8.13;7.20;;;19.80;69.60;;;;;;5003594;28;20033;-47
2023/10/10 14:00:29;;;;;;;11.55;8.00;;;19.80;69.60;;;;;;5015561;28;20056;-49
2023/10/10 14:03:05;;;;;;;10.30;8.40;;;19.80;69.50;;;;;;5009403;28;20022;-50
2023/10/10 14:05:33;;;;;;;9.25;7.53;;;19.80;70.00;;;;;;5013393;28;20057;-49
2023/10/10 14:08:03;;;;;;;8.88;7.57;;;19.80;69.50;;;;;;5016767;28;20470;-48
2023/10/10 14:10:40;;;;;;;8.55;7.65;;;19.80;69.60;;;;;;5015454;28;20034;-48
2023/10/10 14:13:18;;;;;;;11.65;7.60;;;19.80;69.50;;;;;;5014070;28;20017;-48
2023/10/10 14:15:55;;;;;;;9.73;6.85;;;19.80;69.50;;;;;;5015088;28;20140;-50
2023/10/10 14:18:22;;;;;;;7.93;6.07;;;19.80;69.40;;;;;;5015719;28;20033;-49
2023/10/10 14:20:49;;;;;;;11.73;7.22;;;19.80;69.40;;;;;;5014835;28;20247;-49
2023/10/10 14:23:18;;;;;;;9.98;7.28;;;19.80;69.30;;;;;;5013186;28;20111;-49
2023/10/10 14:25:47;;;;;;;8.65;6.47;;;19.80;69.50;;;;;;5006600;28;20030;-48
2023/10/10 14:28:16;;;;;;;11.05;6.95;;;19.90;69.70;;;;;;5017910;28;20113;-48
2023/10/10 14:30:43;;;;;;;8.63;6.40;;;19.80;69.50;;;;;;5016984;28;20041;-50
2023/10/10 14:33:08;;;;;;;9.23;6.78;;;19.80;69.40;;;;;;5008975;28;20105;-48
2023/10/10 14:35:34;;;;;;;8.15;5.80;;;19.80;69.40;;;;;;5015285;28;20129;-48
2023/10/10 14:38:00;;;;;;;8.13;5.80;;;19.80;69.50;;;;;;5016684;28;20029;-48
2023/10/10 14:40:26;;;;;;;6.93;5.80;;;19.80;69.40;;;;;;5016469;28;20040;-48
2023/10/10 14:42:52;;;;;;;7.78;6.03;;;19.80;69.30;;;;;;5015610;28;20029;-49
2023/10/10 14:45:28;;;;;;;9.23;6.40;;;19.80;69.60;;;;;;5015505;28;20061;-50
2023/10/10 14:47:55;;;;;;;7.95;6.35;;;19.80;69.40;;;;;;5010752;28;20061;-50
2023/10/10 14:50:24;;;;;;;6.72;6.05;;;19.80;69.50;;;;;;5012167;28;20056;-48
2023/10/10 14:52:53;;;;;;;8.52;6.43;;;19.80;69.50;;;;;;5011671;28;20037;-47
2023/10/10 14:55:27;;;;;;;6.97;5.60;;;19.80;69.50;;;;;;5009542;28;20045;-51
2023/10/10 14:57:56;;;;;;;11.10;6.57;;;19.80;69.60;;;;;;5016831;28;20029;-48
2023/10/10 15:00:24;;;;;;;7.10;5.95;;;19.80;69.60;;;;;;5027404;28;20033;-53
2023/10/10 15:02:53;;;;;;;7.28;5.53;;;19.80;69.60;;;;;;5020121;28;20047;-49
2023/10/10 15:05:25;;;;;;;7.90;5.70;;;19.80;70.00;;;;;;5024224;28;20059;-48
2023/10/10 15:07:52;;;;;;;7.97;6.35;;;19.80;69.70;;;;;;5023954;28;20021;-51
2023/10/10 15:10:25;;;;;;;6.32;5.05;;;19.90;69.80;;;;;;5020083;28;20040;-50
2023/10/10 15:12:54;;;;;;;6.10;5.25;;;19.80;69.50;;;;;;5023023;28;20041;-50
2023/10/10 15:15:19;;;;;;;8.65;5.90;;;19.80;69.60;;;;;;5023739;28;20034;-50
2023/10/10 15:17:45;;;;;;;8.27;7.05;;;19.80;69.90;;;;;;5018331;28;20036;-53
2023/10/10 15:20:12;;;;;;;8.10;5.68;;;19.80;69.80;;;;;;5022642;28;20041;-54
2023/10/10 15:22:41;;;;;;;7.18;5.78;;;19.80;69.80;;;;;;5015902;28;20487;-50
2023/10/10 15:25:10;;;;;;;14.18;5.35;;;19.80;69.70;;;;;;5017765;28;20216;-54
2023/10/10 15:27:40;;;;;;;7.47;5.32;;;19.80;69.80;;;;;;5024759;28;20537;-49
2023/10/10 15:30:08;;;;;;;7.05;5.72;;;19.80;69.70;;;;;;5017442;28;20091;-49
2023/10/10 15:32:43;;;;;;;6.60;5.65;;;19.80;69.70;;;;;;5021169;28;20040;-50
2023/10/10 15:35:10;;;;;;;7.88;5.65;;;19.80;69.80;;;;;;5023848;28;20045;-48
2023/10/10 15:37:42;;;;;;;6.53;5.32;;;19.90;69.90;;;;;;5024483;28;20036;-50
2023/10/10 15:40:12;;;;;;;8.00;5.28;;;19.80;70.00;;;;;;5020865;28;20037;-50
2023/10/10 15:42:38;;;;;;;7.97;6.05;;;19.80;69.70;;;;;;5025409;28;20858;-50
2023/10/10 15:45:05;;;;;;;7.88;5.15;;;19.80;70.00;;;;;;5023898;28;20175;-49
2023/10/10 15:47:31;;;;;;;6.93;5.65;;;19.80;69.90;;;;;;5024515;28;20049;-49
2023/10/10 15:50:00;;;;;;;6.35;5.03;;;19.80;70.00;;;;;;5016826;28;20037;-49
2023/10/10 15:52:27;;;;;;;7.82;5.10;;;19.80;70.00;;;;;;5022032;28;20048;-48
2023/10/10 15:54:52;;;;;;;8.15;4.90;;;19.80;70.00;;;;;;5019719;28;20048;-49
2023/10/10 15:57:22;;;;;;;7.53;5.20;;;19.80;70.00;;;;;;5021862;28;20124;-51
2023/10/10 15:59:48;;;;;;;6.40;5.13;;;19.80;70.10;;;;;;5020284;28;20037;-47